Time;durP1;ratioP1;P1;durP2;ratioP2;P2;SDS_P1;SDS_P2;PMS_P1;PMS_P2;Temp;Humidity;BMP_temperature;BMP_pressure;BME280_temperature;BME280_humidity;BME280_pressure;Samples;Min_cycle;Max_cycle;Signal;HPM_P1;HPM_P2
2022/11/18 00:01:07;;;;;;;17.75;11.35;;;;;;;9.58;100.00;98552.25;5024653;28;20202;-76
2022/11/18 00:03:34;;;;;;;15.73;9.60;;;;;;;9.59;100.00;98550.44;5021345;28;20217;-74
2022/11/18 00:06:00;;;;;;;21.42;12.00;;;;;;;9.57;100.00;98549.69;5039075;28;20609;-74
2022/11/18 00:08:27;;;;;;;22.38;11.68;;;;;;;9.61;100.00;98548.50;5032439;28;20233;-76
2022/11/18 00:10:54;;;;;;;18.25;11.15;;;;;;;9.65;100.00;98555.34;5026638;28;20282;-77
2022/11/18 00:16:09;;;;;;;17.38;10.55;;;;;;;9.65;100.00;98547.28;5041654;28;20710;-75
2022/11/18 00:18:35;;;;;;;18.75;9.52;;;;;;;9.63;100.00;98545.69;5032410;28;20523;-75
2022/11/18 00:21:02;;;;;;;13.52;9.40;;;;;;;9.68;100.00;98543.53;5040392;28;20202;-75
2022/11/18 00:23:29;;;;;;;16.20;9.80;;;;;;;9.71;100.00;98546.88;5033139;28;20734;-77
2022/11/18 00:25:56;;;;;;;12.45;9.10;;;;;;;9.72;100.00;98548.59;5050673;28;20687;-75
2022/11/18 00:28:22;;;;;;;14.02;10.77;;;;;;;9.67;100.00;98550.72;5040167;28;20316;-75
2022/11/18 00:30:49;;;;;;;21.42;12.38;;;;;;;9.60;100.00;98552.13;5035554;28;20198;-75
2022/11/18 00:33:16;;;;;;;20.80;13.32;;;;;;;9.72;100.00;98553.97;5037658;28;20745;-75
2022/11/18 00:35:43;;;;;;;14.05;10.27;;;;;;;9.70;100.00;98544.28;5025327;28;20197;-75
2022/11/18 00:38:09;;;;;;;22.48;13.05;;;;;;;9.78;100.00;98553.50;5019698;28;20309;-75
2022/11/18 00:40:36;;;;;;;22.45;13.18;;;;;;;9.70;100.00;98547.84;5024249;28;20285;-74
2022/11/18 00:43:02;;;;;;;20.38;12.32;;;;;;;9.59;100.00;98547.75;5037210;28;20339;-76
2022/11/18 00:45:28;;;;;;;20.60;13.50;;;;;;;9.54;100.00;98548.06;5048311;28;20664;-75
2022/11/18 00:47:55;;;;;;;19.50;13.30;;;;;;;9.54;100.00;98536.44;5058281;28;20730;-75
2022/11/18 00:50:23;;;;;;;24.10;14.30;;;;;;;9.59;100.00;98542.38;5039210;28;20202;-74
2022/11/18 00:52:50;;;;;;;24.60;14.32;;;;;;;9.52;100.00;98547.31;5031590;28;20193;-76
2022/11/18 00:55:16;;;;;;;27.15;13.50;;;;;;;9.56;100.00;98542.56;5030841;28;20651;-77
2022/11/18 00:57:43;;;;;;;20.63;11.68;;;;;;;9.60;100.00;98542.25;5031829;28;20222;-76
2022/11/18 01:00:10;;;;;;;20.63;13.00;;;;;;;9.64;100.00;98550.09;5039702;28;20206;-75
2022/11/18 01:02:37;;;;;;;17.20;12.82;;;;;;;9.70;100.00;98550.53;5026300;28;20229;-75
2022/11/18 01:05:04;;;;;;;20.42;12.35;;;;;;;9.75;100.00;98553.75;5030223;28;20222;-75
2022/11/18 01:07:32;;;;;;;15.25;11.40;;;;;;;9.79;100.00;98554.38;5033793;28;20230;-75
2022/11/18 01:09:59;;;;;;;16.88;11.60;;;;;;;9.82;100.00;98556.84;5033179;28;20198;-77
2022/11/18 01:15:10;;;;;;;15.00;11.57;;;;;;;9.82;100.00;98568.47;5036921;28;20248;-76
2022/11/18 01:17:36;;;;;;;17.77;13.10;;;;;;;9.88;100.00;98561.81;5027118;28;20233;-74
2022/11/18 01:20:04;;;;;;;19.48;13.65;;;;;;;9.84;100.00;98567.50;5017794;28;20199;-76
2022/11/18 01:22:31;;;;;;;20.88;13.38;;;;;;;9.82;100.00;98573.84;5021104;28;20198;-76
2022/11/18 01:24:58;;;;;;;20.08;13.20;;;;;;;9.86;100.00;98582.56;5028687;28;20257;-77
2022/11/18 01:27:25;;;;;;;20.33;13.70;;;;;;;9.86;100.00;98581.69;5036520;28;20205;-75
2022/11/18 01:29:51;;;;;;;20.42;14.18;;;;;;;9.84;100.00;98581.81;5024059;28;20200;-76
2022/11/18 01:32:18;;;;;;;16.50;13.38;;;;;;;9.92;100.00;98582.09;5030383;28;20241;-75
2022/11/18 01:34:44;;;;;;;21.38;14.18;;;;;;;9.91;100.00;98590.28;5029753;28;20195;-76
2022/11/18 01:37:11;;;;;;;19.42;14.63;;;;;;;9.89;100.00;98592.22;5020234;28;20207;-76
2022/11/18 01:39:38;;;;;;;20.58;14.88;;;;;;;9.89;100.00;98598.47;5032683;28;20194;-76
2022/11/18 01:42:11;;;;;;;21.90;14.88;;;;;;;9.92;100.00;98589.31;5013809;28;20199;-76
2022/11/18 01:44:59;;;;;;;19.67;14.05;;;;;;;9.96;100.00;98597.03;5036248;28;20189;-75
2022/11/18 01:47:31;;;;;;;21.50;13.48;;;;;;;9.96;100.00;98598.88;5037369;28;20230;-76
2022/11/18 01:49:59;;;;;;;20.33;13.85;;;;;;;9.99;100.00;98606.72;5023735;28;20224;-75
2022/11/18 01:52:26;;;;;;;22.45;13.75;;;;;;;10.02;100.00;98604.69;5028099;28;20206;-76
2022/11/18 01:54:58;;;;;;;22.75;14.25;;;;;;;10.04;100.00;98607.28;5024841;28;20289;-74
2022/11/18 01:57:26;;;;;;;17.23;13.07;;;;;;;10.02;100.00;98601.16;5027938;28;20281;-76
2022/11/18 01:59:57;;;;;;;25.13;14.35;;;;;;;10.00;100.00;98603.94;5029252;28;20201;-75
2022/11/18 02:02:24;;;;;;;19.60;13.77;;;;;;;10.03;100.00;98609.09;5027879;28;20221;-74
2022/11/18 02:04:52;;;;;;;24.55;14.40;;;;;;;9.94;100.00;98598.13;5027388;28;20202;-76
2022/11/18 02:07:20;;;;;;;25.40;17.33;;;;;;;9.85;100.00;98605.00;5027242;28;20200;-76
2022/11/18 02:09:47;;;;;;;22.08;15.82;;;;;;;9.86;100.00;98604.06;5028909;28;20230;-76
2022/11/18 02:12:15;;;;;;;19.70;15.43;;;;;;;9.86;100.00;98605.88;5024365;28;20194;-76
2022/11/18 02:14:45;;;;;;;20.73;14.75;;;;;;;9.91;100.00;98611.81;5017245;28;20194;-75
2022/11/18 02:17:37;;;;;;;25.83;16.13;;;;;;;9.77;100.00;98600.19;5018572;28;20665;-77
2022/11/18 02:20:26;;;;;;;25.08;15.68;;;;;;;9.73;100.00;98598.69;5048273;28;20623;-75
2022/11/18 02:23:17;;;;;;;19.65;14.00;;;;;;;9.75;100.00;98607.50;5018609;28;20197;-75
2022/11/18 02:26:03;;;;;;;22.23;14.85;;;;;;;9.86;100.00;98609.44;5026606;28;20221;-75
2022/11/18 02:28:39;;;;;;;22.20;14.00;;;;;;;9.73;100.00;98603.22;5019733;28;20839;-74
2022/11/18 02:31:15;;;;;;;21.35;15.30;;;;;;;9.70;100.00;98606.97;5013284;28;20273;-75
2022/11/18 02:33:49;;;;;;;20.48;14.80;;;;;;;9.72;100.00;98606.84;5030776;28;20201;-74
2022/11/18 02:36:20;;;;;;;24.08;15.05;;;;;;;9.73;100.00;98604.06;5022097;28;20659;-74
2022/11/18 02:38:51;;;;;;;22.65;14.52;;;;;;;9.72;100.00;98613.13;5021083;28;20304;-75
2022/11/18 02:41:23;;;;;;;19.85;13.80;;;;;;;9.75;100.00;98617.41;5034106;28;20270;-75
2022/11/18 02:43:55;;;;;;;22.67;14.80;;;;;;;9.76;100.00;98619.13;5051468;28;20193;-75
2022/11/18 02:46:27;;;;;;;20.48;13.30;;;;;;;9.71;100.00;98616.75;5020704;28;20214;-76
2022/11/18 02:48:55;;;;;;;21.67;15.70;;;;;;;9.68;100.00;98610.72;5030761;28;20229;-75
2022/11/18 02:51:25;;;;;;;23.40;14.85;;;;;;;9.63;100.00;98602.97;5026275;28;20663;-76
2022/11/18 02:53:55;;;;;;;21.35;14.25;;;;;;;9.70;100.00;98609.66;5030113;28;20195;-75
2022/11/18 02:56:24;;;;;;;21.17;14.70;;;;;;;9.67;100.00;98609.00;5028936;28;20290;-75
2022/11/18 02:58:50;;;;;;;22.40;15.00;;;;;;;9.67;100.00;98611.69;5023002;28;20233;-75
2022/11/18 03:01:21;;;;;;;22.98;15.30;;;;;;;9.66;100.00;98616.22;5031390;28;20225;-75
2022/11/18 03:03:49;;;;;;;26.70;16.00;;;;;;;9.74;100.00;98615.66;5035135;28;20196;-75
2022/11/18 03:06:28;;;;;;;25.90;17.10;;;;;;;9.57;100.00;98619.56;5019683;28;20246;-75
2022/11/18 03:09:05;;;;;;;24.98;16.52;;;;;;;9.58;100.00;98623.94;5029941;28;20241;-75
2022/11/18 03:11:36;;;;;;;26.00;16.50;;;;;;;9.60;100.00;98625.56;5035656;28;20197;-75
2022/11/18 03:14:14;;;;;;;26.58;16.38;;;;;;;9.67;100.00;98631.38;5035884;28;20197;-75
2022/11/18 03:16:51;;;;;;;25.65;16.77;;;;;;;9.65;100.00;98627.06;5035831;28;20197;-75
2022/11/18 03:19:28;;;;;;;23.52;15.35;;;;;;;9.64;100.00;98631.59;5024512;28;20305;-76
2022/11/18 03:22:07;;;;;;;27.73;17.30;;;;;;;9.66;100.00;98631.50;5024585;28;20197;-75
2022/11/18 03:24:40;;;;;;;28.33;17.10;;;;;;;9.63;100.00;98629.00;5032349;28;20216;-75
2022/11/18 03:27:12;;;;;;;29.75;17.73;;;;;;;9.62;100.00;98628.16;5039580;28;20202;-74
2022/11/18 03:29:45;;;;;;;29.45;18.15;;;;;;;9.58;100.00;98626.63;5018690;28;20213;-74
2022/11/18 03:32:16;;;;;;;24.80;16.70;;;;;;;9.65;100.00;98632.44;5026702;28;20687;-74
2022/11/18 03:34:47;;;;;;;35.53;17.13;;;;;;;9.54;100.00;98636.75;5012793;28;20190;-74
2022/11/18 03:37:16;;;;;;;24.85;16.58;;;;;;;9.49;100.00;98646.09;5012329;28;20583;-73
2022/11/18 03:39:46;;;;;;;30.52;16.45;;;;;;;9.51;100.00;98641.47;5010889;28;20290;-75
2022/11/18 03:42:16;;;;;;;26.80;15.63;;;;;;;9.54;100.00;98652.88;5025685;28;20225;-75
2022/11/18 03:44:48;;;;;;;27.83;16.98;;;;;;;9.59;100.00;98657.94;5019227;28;20564;-75
2022/11/18 03:47:21;;;;;;;28.05;15.18;;;;;;;9.48;100.00;98649.75;5026115;28;20565;-75
2022/11/18 03:49:52;;;;;;;22.63;15.23;;;;;;;9.50;100.00;98658.56;5031260;28;20668;-75
2022/11/18 03:52:24;;;;;;;22.73;14.82;;;;;;;9.51;100.00;98657.59;5015537;28;20309;-75
2022/11/18 03:54:54;;;;;;;22.52;14.52;;;;;;;9.56;100.00;98658.97;5024726;28;20198;-75
2022/11/18 03:57:27;;;;;;;21.92;15.35;;;;;;;9.61;100.00;98658.69;5021065;28;20258;-76
2022/11/18 03:59:59;;;;;;;25.92;14.88;;;;;;;9.56;100.00;98655.44;5035236;28;20202;-74
2022/11/18 04:02:27;;;;;;;21.35;14.55;;;;;;;9.43;100.00;98657.25;5043588;28;20198;-74
2022/11/18 04:04:57;;;;;;;21.65;13.57;;;;;;;9.46;100.00;98655.22;5027103;28;20226;-74
2022/11/18 04:07:30;;;;;;;20.88;14.00;;;;;;;9.42;100.00;98658.22;5018703;28;20225;-75
2022/11/18 04:10:00;;;;;;;22.95;14.27;;;;;;;9.43;100.00;98654.56;5017321;28;20199;-75
2022/11/18 04:12:31;;;;;;;20.00;14.13;;;;;;;9.40;100.00;98655.63;5017030;28;20214;-76
2022/11/18 04:14:59;;;;;;;18.10;12.70;;;;;;;9.36;100.00;98660.38;5026645;28;20202;-75
2022/11/18 04:17:28;;;;;;;18.30;12.68;;;;;;;9.33;100.00;98657.03;5033937;28;20226;-75
2022/11/18 04:19:56;;;;;;;17.38;12.02;;;;;;;9.30;100.00;98670.66;5034821;28;20194;-74
2022/11/18 04:22:22;;;;;;;17.50;11.68;;;;;;;9.29;100.00;98679.66;5034088;28;20205;-74
2022/11/18 04:24:49;;;;;;;17.83;11.30;;;;;;;9.24;100.00;98679.13;5039018;28;20208;-75
2022/11/18 04:27:16;;;;;;;15.30;10.30;;;;;;;9.27;100.00;98677.13;5023853;28;20223;-75
2022/11/18 04:29:42;;;;;;;16.58;11.20;;;;;;;9.29;100.00;98680.53;5025952;28;20198;-75
2022/11/18 04:32:09;;;;;;;14.02;10.05;;;;;;;9.28;100.00;98675.28;5033995;28;20604;-75
2022/11/18 04:34:35;;;;;;;16.27;10.65;;;;;;;9.34;100.00;98681.09;5015409;28;20202;-75
2022/11/18 04:37:03;;;;;;;15.48;11.20;;;;;;;9.42;100.00;98674.34;5014927;28;20194;-74
2022/11/18 04:39:30;;;;;;;17.63;11.93;;;;;;;9.45;100.00;98680.38;5020583;28;20252;-77
2022/11/18 04:41:56;;;;;;;17.08;10.77;;;;;;;9.48;100.00;98684.69;5034502;28;20231;-75
2022/11/18 04:44:24;;;;;;;15.98;11.48;;;;;;;9.49;100.00;98686.38;5034182;28;20228;-75
2022/11/18 04:46:51;;;;;;;17.75;11.98;;;;;;;9.48;100.00;98695.44;5019601;28;20214;-76
2022/11/18 04:49:18;;;;;;;18.00;13.23;;;;;;;9.49;100.00;98686.38;5033069;28;20727;-76
2022/11/18 04:51:45;;;;;;;41.25;26.05;;;;;;;9.53;100.00;98693.28;5028133;28;20208;-76
2022/11/18 04:54:15;;;;;;;47.08;29.98;;;;;;;9.56;100.00;98698.44;5046232;28;20248;-76
2022/11/18 04:56:42;;;;;;;32.80;20.67;;;;;;;9.56;100.00;98691.22;5037646;28;20186;-75
2022/11/18 04:59:09;;;;;;;25.15;16.20;;;;;;;9.58;100.00;98693.81;5026890;28;20720;-77
2022/11/18 05:01:35;;;;;;;22.88;12.95;;;;;;;9.57;100.00;98692.97;5033348;28;20216;-75
2022/11/18 05:04:04;;;;;;;67.78;38.10;;;;;;;9.54;100.00;98698.56;5032760;28;20255;-75
2022/11/18 05:06:31;;;;;;;43.28;28.50;;;;;;;9.52;100.00;98702.28;5019428;28;20290;-75
2022/11/18 05:09:00;;;;;;;29.17;19.17;;;;;;;9.51;100.00;98700.59;5021328;28;20232;-74
2022/11/18 05:14:12;;;;;;;19.52;12.80;;;;;;;9.42;100.00;98711.97;5030751;28;20201;-74
2022/11/18 05:16:39;;;;;;;18.13;11.38;;;;;;;9.35;100.00;98709.69;5027626;28;20223;-76
2022/11/18 05:19:06;;;;;;;16.80;11.65;;;;;;;9.25;100.00;98722.00;5043354;28;20603;-75
2022/11/18 05:21:33;;;;;;;18.50;12.80;;;;;;;9.19;100.00;98719.72;5053875;28;20273;-74
2022/11/18 05:23:59;;;;;;;20.65;12.20;;;;;;;9.09;100.00;98722.16;5033325;28;20614;-76
2022/11/18 05:26:29;;;;;;;20.88;12.50;;;;;;;9.07;100.00;98716.03;5017212;28;20783;-77
2022/11/18 05:28:57;;;;;;;17.15;11.02;;;;;;;9.01;100.00;98715.59;5022881;28;20257;-76
2022/11/18 05:31:23;;;;;;;19.13;12.43;;;;;;;9.07;100.00;98724.09;5019427;28;20261;-76
2022/11/18 05:33:50;;;;;;;22.52;12.73;;;;;;;9.10;100.00;98729.25;5033608;28;20277;-74
2022/11/18 05:36:18;;;;;;;21.35;12.23;;;;;;;9.14;100.00;98727.25;5015363;28;20205;-75
2022/11/18 05:38:46;;;;;;;16.42;10.95;;;;;;;9.06;100.00;98729.56;5032890;28;20220;-75
2022/11/18 05:43:09;;;;;;;18.90;10.80;;;;;;;9.03;100.00;98733.31;5027048;28;20660;-75
2022/11/18 05:44:01;;;;;;;17.63;11.40;;;;;;;8.96;100.00;98732.84;5027563;28;20244;-76
2022/11/18 05:46:28;;;;;;;16.58;11.18;;;;;;;8.94;100.00;98737.44;5035694;28;20599;-75
2022/11/18 05:48:55;;;;;;;16.98;11.93;;;;;;;8.97;100.00;98734.56;5035903;28;20225;-75
2022/11/18 05:51:23;;;;;;;14.95;10.98;;;;;;;8.90;100.00;98737.75;5041531;28;20563;-74
2022/11/18 05:53:52;;;;;;;22.15;11.13;;;;;;;8.89;100.00;98747.63;5033942;28;20212;-74
2022/11/18 05:56:22;;;;;;;16.13;10.95;;;;;;;8.87;100.00;98744.19;5033974;28;20202;-73
2022/11/18 05:58:49;;;;;;;20.08;14.10;;;;;;;8.84;100.00;98749.75;5023893;28;20223;-74
2022/11/18 06:01:22;;;;;;;19.52;11.90;;;;;;;8.80;100.00;98752.75;5031944;28;20202;-72
2022/11/18 06:03:48;;;;;;;21.67;12.55;;;;;;;8.87;100.00;98748.69;5025239;28;20193;-75
2022/11/18 06:06:19;;;;;;;20.15;12.07;;;;;;;8.86;100.00;98749.66;5039836;28;20308;-74
2022/11/18 06:08:51;;;;;;;22.70;13.73;;;;;;;8.91;100.00;98752.88;5041595;28;20224;-73
2022/11/18 06:11:19;;;;;;;21.27;13.57;;;;;;;8.90;100.00;98757.41;5043987;28;20217;-74
2022/11/18 06:13:51;;;;;;;19.10;12.15;;;;;;;8.87;100.00;98764.81;5034032;28;20325;-74
2022/11/18 06:16:22;;;;;;;20.77;12.73;;;;;;;8.92;100.00;98770.72;5034402;28;20708;-75
2022/11/18 06:18:48;;;;;;;21.10;14.18;;;;;;;8.77;100.00;98764.50;5032660;28;20512;-74
2022/11/18 06:21:15;;;;;;;22.38;13.98;;;;;;;8.87;100.00;98775.53;5033168;28;20571;-74
2022/11/18 06:23:43;;;;;;;23.02;14.00;;;;;;;8.89;100.00;98779.84;5033373;28;20571;-74
2022/11/18 06:26:11;;;;;;;21.27;13.10;;;;;;;8.93;100.00;98785.88;5034091;28;20221;-75
2022/11/18 06:28:38;;;;;;;25.55;14.05;;;;;;;8.91;100.00;98801.22;5032264;28;20218;-75
2022/11/18 06:31:05;;;;;;;23.88;13.23;;;;;;;8.92;100.00;98795.75;5035249;28;20208;-75
2022/11/18 06:33:33;;;;;;;22.10;14.27;;;;;;;8.94;100.00;98801.03;5040601;28;20690;-76
2022/11/18 06:35:59;;;;;;;25.75;15.50;;;;;;;8.94;100.00;98801.88;5036073;28;20201;-77
2022/11/18 06:38:26;;;;;;;25.20;14.68;;;;;;;9.02;100.00;98805.91;5034509;28;20594;-76
2022/11/18 06:40:52;;;;;;;27.35;15.63;;;;;;;9.09;100.00;98809.91;5034361;28;20202;-74
2022/11/18 06:48:51;;;;;;;26.23;16.05;;;;;;;9.10;100.00;98817.03;5034678;28;20319;-75
2022/11/18 06:51:18;;;;;;;25.95;15.15;;;;;;;9.09;100.00;98829.59;5034422;28;20208;-76
2022/11/18 06:53:45;;;;;;;24.73;16.02;;;;;;;9.11;100.00;98824.09;5035366;28;20207;-74
2022/11/18 06:56:13;;;;;;;32.13;15.75;;;;;;;9.25;100.00;98831.25;5033253;28;20208;-73
2022/11/18 06:58:40;;;;;;;28.30;15.75;;;;;;;9.15;100.00;98834.53;5034016;28;20379;-75
2022/11/18 07:01:11;;;;;;;30.75;17.25;;;;;;;9.11;100.00;98838.41;5043154;28;20233;-73
2022/11/18 07:03:38;;;;;;;29.17;15.52;;;;;;;9.10;100.00;98841.19;5034382;28;20205;-73
2022/11/18 07:06:06;;;;;;;27.23;16.45;;;;;;;9.18;100.00;98855.00;5034996;28;20206;-74
2022/11/18 07:08:34;;;;;;;32.78;16.67;;;;;;;9.17;100.00;98847.88;5032960;28;20218;-75
2022/11/18 07:11:01;;;;;;;27.27;16.25;;;;;;;9.16;100.00;98855.09;5032429;28;20216;-74
2022/11/18 07:13:27;;;;;;;31.60;17.60;;;;;;;9.14;100.00;98853.47;5032587;28;20204;-74
2022/11/18 07:15:54;;;;;;;32.28;17.45;;;;;;;9.14;100.00;98861.53;5032736;28;20288;-75
2022/11/18 07:18:20;;;;;;;28.05;14.95;;;;;;;9.08;100.00;98860.06;5032048;28;20226;-75
2022/11/18 07:20:47;;;;;;;24.38;14.95;;;;;;;9.13;100.00;98857.09;5033284;28;20575;-75
2022/11/18 07:23:15;;;;;;;26.65;14.25;;;;;;;9.09;100.00;98860.94;5034955;28;20204;-75
2022/11/18 07:25:41;;;;;;;23.50;13.15;;;;;;;9.15;100.00;98872.13;5034639;28;20255;-75
2022/11/18 07:28:08;;;;;;;22.70;11.98;;;;;;;9.15;100.00;98872.13;5035675;28;20232;-75
2022/11/18 07:30:35;;;;;;;21.92;12.07;;;;;;;9.14;100.00;98872.25;5036667;28;20206;-76
2022/11/18 07:33:01;;;;;;;22.95;12.82;;;;;;;9.16;100.00;98878.41;5036091;28;20233;-74
2022/11/18 07:35:27;;;;;;;21.33;13.00;;;;;;;9.18;100.00;98879.16;5036225;28;20198;-75
2022/11/18 07:37:54;;;;;;;19.40;11.80;;;;;;;9.13;100.00;98894.69;5035773;28;20229;-74
2022/11/18 07:40:22;;;;;;;21.50;13.45;;;;;;;9.18;100.00;98893.47;5035788;28;20206;-75
2022/11/18 07:42:48;;;;;;;22.88;13.30;;;;;;;9.21;100.00;98894.22;5036260;28;20205;-75
2022/11/18 07:45:15;;;;;;;19.92;12.88;;;;;;;9.16;100.00;98895.38;5035626;28;20748;-74
2022/11/18 07:47:41;;;;;;;22.88;12.77;;;;;;;9.26;100.00;98898.31;5035237;28;20226;-75
2022/11/18 07:50:08;;;;;;;25.48;14.32;;;;;;;9.34;100.00;98903.22;5035658;28;20206;-75
2022/11/18 07:52:35;;;;;;;25.98;13.57;;;;;;;9.34;100.00;98905.91;5043620;28;20212;-74
2022/11/18 07:55:01;;;;;;;25.70;15.23;;;;;;;9.36;100.00;98907.53;5049665;28;20208;-75
2022/11/18 07:57:29;;;;;;;26.00;15.30;;;;;;;9.43;100.00;98915.19;5042640;28;20521;-75
2022/11/18 07:59:56;;;;;;;31.60;17.92;;;;;;;9.43;100.00;98917.88;5039350;28;20748;-76
2022/11/18 08:02:22;;;;;;;26.45;17.77;;;;;;;9.45;100.00;98924.00;5039705;28;20297;-75
2022/11/18 08:04:49;;;;;;;27.98;17.67;;;;;;;9.48;100.00;98922.00;5035820;28;20292;-75
2022/11/18 08:07:15;;;;;;;25.52;16.75;;;;;;;9.46;100.00;98929.28;5035918;28;20316;-73
2022/11/18 08:09:42;;;;;;;22.05;14.68;;;;;;;9.49;100.00;98929.09;5035984;28;20355;-75
2022/11/18 08:12:09;;;;;;;31.77;17.80;;;;;;;9.49;100.00;98929.09;5042317;28;20205;-76
2022/11/18 08:14:38;;;;;;;27.83;17.33;;;;;;;9.46;100.00;98933.81;5059111;28;20182;-75
2022/11/18 08:17:04;;;;;;;26.25;15.63;;;;;;;9.57;100.00;98936.66;5057475;28;20205;-78
2022/11/18 08:19:33;;;;;;;25.55;15.02;;;;;;;9.59;100.00;98942.81;5058971;28;20233;-76
2022/11/18 08:22:00;;;;;;;27.52;16.23;;;;;;;9.51;100.00;98945.13;5060209;28;20193;-75
2022/11/18 08:24:26;;;;;;;23.63;14.07;;;;;;;9.48;100.00;98953.38;5059569;28;20196;-75
2022/11/18 08:26:53;;;;;;;23.02;14.32;;;;;;;9.55;100.00;98954.72;5058769;28;20269;-75
2022/11/18 08:29:19;;;;;;;20.75;13.63;;;;;;;9.53;100.00;98960.19;5058150;28;20229;-75
2022/11/18 08:31:47;;;;;;;20.98;14.30;;;;;;;9.53;100.00;98959.31;5047058;28;20202;-74
2022/11/18 08:34:15;;;;;;;18.42;13.43;;;;;;;9.54;100.00;98958.34;5048636;28;20266;-75
2022/11/18 08:36:41;;;;;;;20.95;12.50;;;;;;;9.51;100.00;98962.09;5051034;28;20569;-74
2022/11/18 08:39:09;;;;;;;18.80;12.45;;;;;;;9.55;100.00;98960.94;5039580;28;20704;-75
2022/11/18 08:41:38;;;;;;;17.20;11.95;;;;;;;9.60;100.00;98966.03;5038176;28;20198;-75
2022/11/18 08:44:06;;;;;;;16.63;11.88;;;;;;;9.62;100.00;98969.47;5036198;28;20365;-75
2022/11/18 08:46:32;;;;;;;19.13;13.20;;;;;;;9.64;100.00;98972.94;5035156;28;20210;-74
2022/11/18 08:49:01;;;;;;;15.30;11.30;;;;;;;9.66;100.00;98975.53;5034509;28;20240;-74
2022/11/18 08:51:27;;;;;;;14.68;11.50;;;;;;;9.67;100.00;98986.16;5040604;28;20233;-73
2022/11/18 08:53:54;;;;;;;22.90;12.18;;;;;;;9.69;100.00;98981.56;5043753;28;20216;-75
2022/11/18 08:56:22;;;;;;;22.30;13.00;;;;;;;9.67;100.00;98983.47;5058155;28;20213;-75
2022/11/18 08:58:49;;;;;;;19.00;12.20;;;;;;;9.72;100.00;98989.44;5058640;28;20238;-78
2022/11/18 09:01:15;;;;;;;18.05;11.90;;;;;;;9.67;100.00;98990.69;5054024;28;20210;-76
2022/11/18 09:03:42;;;;;;;17.52;12.30;;;;;;;9.62;100.00;98993.69;5036172;28;20205;-75
2022/11/18 09:06:13;;;;;;;20.15;11.73;;;;;;;9.56;100.00;99000.28;5036024;28;20623;-76
2022/11/18 09:08:40;;;;;;;16.75;11.40;;;;;;;9.47;100.00;99000.88;5034402;28;20261;-75
2022/11/18 09:11:08;;;;;;;18.50;10.98;;;;;;;9.41;100.00;99012.03;5037990;28;20201;-75
2022/11/18 09:13:35;;;;;;;15.15;10.50;;;;;;;9.42;100.00;99007.50;5036725;28;20206;-75
2022/11/18 09:16:03;;;;;;;15.23;9.98;;;;;;;9.45;100.00;99007.31;5035679;28;20297;-74
2022/11/18 09:18:30;;;;;;;12.30;9.18;;;;;;;9.34;100.00;99008.84;5034357;28;20225;-75
2022/11/18 09:20:57;;;;;;;14.93;9.05;;;;;;;9.29;100.00;99010.94;5035104;28;20197;-73
2022/11/18 09:23:26;;;;;;;13.70;8.18;;;;;;;9.27;100.00;99015.59;5035409;28;20198;-74
2022/11/18 09:25:58;;;;;;;16.02;7.95;;;;;;;9.29;100.00;99016.31;5036792;28;20265;-76
2022/11/18 09:28:25;;;;;;;11.98;8.25;;;;;;;9.27;100.00;99015.59;5039974;28;20226;-74
2022/11/18 09:30:51;;;;;;;9.07;7.30;;;;;;;9.25;100.00;99016.59;5037567;28;20573;-74
2022/11/18 09:33:18;;;;;;;9.90;7.30;;;;;;;9.27;100.00;99020.06;5038086;28;20206;-74
2022/11/18 09:35:45;;;;;;;9.88;6.57;;;;;;;9.21;100.00;99024.00;5037370;28;20252;-75
2022/11/18 09:38:12;;;;;;;9.48;5.95;;;;;;;9.26;100.00;99024.56;5038759;28;20519;-74
2022/11/18 09:40:49;;;;;;;10.43;7.05;;;;;;;9.25;100.00;99030.03;5038379;28;20575;-75
2022/11/18 09:43:21;;;;;;;7.82;5.90;;;;;;;9.26;100.00;99029.09;5037957;28;20217;-74
2022/11/18 09:45:54;;;;;;;6.90;4.88;;;;;;;9.28;100.00;99038.78;5038665;28;20597;-73
2022/11/18 09:49:11;;;;;;;7.25;4.80;;;;;;;9.27;100.00;99036.19;5039967;28;20249;-74
2022/11/18 09:51:11;;;;;;;13.30;4.65;;;;;;;9.35;100.00;99040.13;5042092;28;20667;-74
2022/11/18 09:53:42;;;;;;;5.90;4.47;;;;;;;9.44;100.00;99038.69;5037528;28;20208;-74
2022/11/18 09:56:13;;;;;;;7.93;4.65;;;;;;;9.66;100.00;99043.59;5035111;28;20225;-74
2022/11/18 09:58:40;;;;;;;7.30;3.80;;;;;;;9.63;100.00;99041.09;5034561;28;20277;-74
2022/11/18 10:01:12;;;;;;;5.20;3.50;;;;;;;9.89;100.00;99043.97;5038001;28;20201;-76
2022/11/18 10:03:39;;;;;;;5.90;3.72;;;;;;;10.08;100.00;99044.47;5042079;28;20576;-74
2022/11/18 10:06:17;;;;;;;4.88;3.30;;;;;;;10.32;100.00;99050.13;5039762;28;20261;-75
2022/11/18 10:08:56;;;;;;;5.18;2.92;;;;;;;10.32;100.00;99057.34;5037238;28;20593;-75
2022/11/18 10:11:28;;;;;;;3.90;2.78;;;;;;;10.33;100.00;99062.59;5044505;28;20189;-74
2022/11/18 10:14:05;;;;;;;5.63;2.53;;;;;;;10.52;100.00;99070.34;5044640;28;20369;-76
2022/11/18 10:16:42;;;;;;;3.10;2.28;;;;;;;10.49;100.00;99070.56;5042183;28;20265;-73
2022/11/18 10:19:22;;;;;;;3.20;2.30;;;;;;;10.37;100.00;99074.91;5037091;28;20233;-75
2022/11/18 10:22:00;;;;;;;4.68;2.00;;;;;;;10.58;100.00;99077.13;5037457;28;20273;-75
2022/11/18 10:24:32;;;;;;;3.78;2.38;;;;;;;10.51;100.00;99079.38;5036570;28;20192;-74
2022/11/18 10:27:01;;;;;;;5.57;2.45;;;;;;;10.78;100.00;99075.81;5037443;28;20197;-75
2022/11/18 10:29:28;;;;;;;2.33;2.10;;;;;;;10.67;100.00;99081.91;5033645;28;20226;-74
2022/11/18 10:32:03;;;;;;;4.50;2.20;;;;;;;10.79;100.00;99078.41;5034861;28;20546;-74
2022/11/18 10:34:30;;;;;;;5.85;2.30;;;;;;;10.69;100.00;99093.44;5036786;28;20265;-75
2022/11/18 10:37:01;;;;;;;3.00;2.45;;;;;;;10.79;100.00;99091.00;5044647;28;20206;-73
2022/11/18 10:39:28;;;;;;;2.80;2.00;;;;;;;10.79;100.00;99085.63;5040305;28;20217;-75
2022/11/18 10:42:00;;;;;;;3.70;2.20;;;;;;;10.94;100.00;99092.66;5034631;28;20225;-74
2022/11/18 10:44:32;;;;;;;3.97;3.00;;;;;;;10.88;100.00;99095.78;5038015;28;20715;-73
2022/11/18 10:47:26;;;;;;;4.35;2.47;;;;;;;10.83;100.00;99096.09;5033108;28;20186;-75
2022/11/18 10:49:54;;;;;;;3.80;2.55;;;;;;;10.79;100.00;99102.66;5033509;28;20201;-74
2022/11/18 10:52:21;;;;;;;4.57;2.55;;;;;;;10.71;100.00;99099.59;5035792;28;20210;-74
2022/11/18 10:55:18;;;;;;;4.13;3.00;;;;;;;10.79;100.00;99104.47;5033736;28;20574;-75
2022/11/18 10:57:45;;;;;;;5.03;2.55;;;;;;;10.71;100.00;99099.59;5036585;28;20352;-74
2022/11/18 11:00:41;;;;;;;3.95;2.55;;;;;;;10.79;100.00;99104.47;5036788;28;20292;-75
2022/11/18 11:03:31;;;;;;;3.50;2.90;;;;;;;10.80;100.00;99107.03;5036266;28;20208;-75
2022/11/18 11:06:15;;;;;;;6.55;3.30;;;;;;;10.73;100.00;99111.13;5036103;28;20204;-75
2022/11/18 11:08:48;;;;;;;4.38;3.28;;;;;;;10.74;100.00;99103.91;5033098;28;20227;-76
2022/11/18 11:11:24;;;;;;;6.63;2.95;;;;;;;10.71;100.00;99114.88;5033156;28;20324;-74
2022/11/18 11:13:54;;;;;;;3.25;2.45;;;;;;;10.90;100.00;99104.63;5035189;28;20263;-74
2022/11/18 11:16:24;;;;;;;3.38;2.65;;;;;;;10.96;100.00;99109.56;5033327;28;20231;-76
2022/11/18 11:18:57;;;;;;;6.47;2.80;;;;;;;10.99;100.00;99109.38;5034514;28;20301;-75
2022/11/18 11:21:27;;;;;;;4.68;3.55;;;;;;;10.80;100.00;99101.66;5033405;28;20186;-75
2022/11/18 11:23:54;;;;;;;3.90;3.17;;;;;;;10.79;100.00;99104.47;5033139;28;20206;-75
2022/11/18 11:26:29;;;;;;;4.05;3.30;;;;;;;10.89;100.00;99105.56;5034157;28;20301;-74
2022/11/18 11:29:01;;;;;;;4.50;3.28;;;;;;;11.30;100.00;99103.72;5032723;28;20229;-75
2022/11/18 11:31:39;;;;;;;4.75;3.05;;;;;;;11.84;100.00;99098.97;5033750;28;20277;-74
2022/11/18 11:34:15;;;;;;;3.35;2.70;;;;;;;12.60;100.00;99099.81;5033176;28;20197;-75
2022/11/18 11:36:49;;;;;;;4.72;2.72;;;;;;;12.88;100.00;99095.03;5032648;28;20204;-76
2022/11/18 11:39:40;;;;;;;3.63;2.40;;;;;;;13.59;100.00;99100.44;5031734;28;20602;-74
2022/11/18 11:42:16;;;;;;;2.58;2.25;;;;;;;13.48;100.00;99093.19;5032981;28;20218;-76
2022/11/18 11:44:56;;;;;;;3.08;2.45;;;;;;;12.67;100.00;99094.81;5032912;28;20204;-73